sensor_id;sensor_type;location;lat;lon;timestamp;pressure;altitude;pressure_sealevel;temperature;humidity
23223;BME280;11780;13.904;100.620;2023-05-25T00:00:48;100914.72;;;33.12;57.46
23223;BME280;11780;13.904;100.620;2023-05-25T00:03:29;100915.53;;;33.12;57.54
23223;BME280;11780;13.904;100.620;2023-05-25T00:06:00;100915.41;;;33.08;57.35
23223;BME280;11780;13.904;100.620;2023-05-25T00:08:31;100925.78;;;33.12;57.39
23223;BME280;11780;13.904;100.620;2023-05-25T00:11:01;100917.84;;;33.10;57.31
23223;BME280;11780;13.904;100.620;2023-05-25T00:13:32;100921.25;;;33.07;57.47
23223;BME280;11780;13.904;100.620;2023-05-25T00:16:03;100925.66;;;33.08;57.50
23223;BME280;11780;13.904;100.620;2023-05-25T00:18:33;100932.53;;;33.02;57.78
23223;BME280;11780;13.904;100.620;2023-05-25T00:21:06;100937.41;;;33.05;57.64
23223;BME280;11780;13.904;100.620;2023-05-25T00:23:37;100936.63;;;33.04;57.42
23223;BME280;11780;13.904;100.620;2023-05-25T00:26:07;100950.94;;;33.06;57.55
23223;BME280;11780;13.904;100.620;2023-05-25T00:28:39;100947.22;;;33.02;57.73
23223;BME280;11780;13.904;100.620;2023-05-25T00:31:10;100951.25;;;33.05;57.74
23223;BME280;11780;13.904;100.620;2023-05-25T00:33:42;100958.13;;;33.07;57.34
23223;BME280;11780;13.904;100.620;2023-05-25T00:36:13;100966.44;;;33.07;57.53
23223;BME280;11780;13.904;100.620;2023-05-25T00:38:43;100974.88;;;33.11;57.34
23223;BME280;11780;13.904;100.620;2023-05-25T00:41:16;100969.66;;;33.09;57.26
23223;BME280;11780;13.904;100.620;2023-05-25T00:43:47;100982.53;;;33.14;57.56
23223;BME280;11780;13.904;100.620;2023-05-25T00:46:17;100987.59;;;33.12;57.71
23223;BME280;11780;13.904;100.620;2023-05-25T00:48:47;100988.91;;;33.06;57.49
23223;BME280;11780;13.904;100.620;2023-05-25T00:51:19;100988.75;;;33.11;57.72
23223;BME280;11780;13.904;100.620;2023-05-25T00:53:50;100986.28;;;33.09;57.60
23223;BME280;11780;13.904;100.620;2023-05-25T00:56:29;100983.19;;;33.11;57.54
23223;BME280;11780;13.904;100.620;2023-05-25T00:59:03;100977.00;;;33.14;57.64
23223;BME280;11780;13.904;100.620;2023-05-25T01:01:37;100980.56;;;33.15;57.52
23223;BME280;11780;13.904;100.620;2023-05-25T01:04:10;100980.56;;;33.15;57.52
23223;BME280;11780;13.904;100.620;2023-05-25T01:06:47;100974.41;;;33.09;57.82
23223;BME280;11780;13.904;100.620;2023-05-25T01:09:20;100986.50;;;33.04;57.59
23223;BME280;11780;13.904;100.620;2023-05-25T01:11:52;100990.69;;;33.10;57.37
23223;BME280;11780;13.904;100.620;2023-05-25T01:14:23;101000.63;;;33.12;57.49
23223;BME280;11780;13.904;100.620;2023-05-25T01:16:57;100995.78;;;33.08;57.54
23223;BME280;11780;13.904;100.620;2023-05-25T01:19:28;100999.00;;;33.10;57.54
23223;BME280;11780;13.904;100.620;2023-05-25T01:22:12;100999.50;;;33.13;57.50
23223;BME280;11780;13.904;100.620;2023-05-25T01:24:57;100997.84;;;33.12;57.41
23223;BME280;11780;13.904;100.620;2023-05-25T01:30:13;101009.63;;;33.08;57.17
23223;BME280;11780;13.904;100.620;2023-05-25T01:32:44;101010.44;;;33.09;57.37
23223;BME280;11780;13.904;100.620;2023-05-25T01:35:15;101012.41;;;33.08;57.07
23223;BME280;11780;13.904;100.620;2023-05-25T01:37:46;101017.25;;;33.12;57.06
23223;BME280;11780;13.904;100.620;2023-05-25T01:40:16;101030.47;;;33.15;56.98
23223;BME280;11780;13.904;100.620;2023-05-25T01:42:47;101032.44;;;33.14;57.04
23223;BME280;11780;13.904;100.620;2023-05-25T01:45:18;101025.41;;;33.17;57.44
23223;BME280;11780;13.904;100.620;2023-05-25T01:47:52;101024.91;;;33.15;57.27
23223;BME280;11780;13.904;100.620;2023-05-25T01:50:35;101036.16;;;33.09;57.37
23223;BME280;11780;13.904;100.620;2023-05-25T01:53:09;101035.88;;;33.11;57.27
23223;BME280;11780;13.904;100.620;2023-05-25T01:56:01;101044.50;;;33.09;56.70
23223;BME280;11780;13.904;100.620;2023-05-25T01:58:37;101048.56;;;33.12;57.29
23223;BME280;11780;13.904;100.620;2023-05-25T02:01:09;101050.19;;;33.13;57.04
23223;BME280;11780;13.904;100.620;2023-05-25T02:03:41;101046.78;;;33.16;57.14
23223;BME280;11780;13.904;100.620;2023-05-25T02:06:15;101045.47;;;33.14;57.04
23223;BME280;11780;13.904;100.620;2023-05-25T02:08:45;101039.25;;;33.17;57.16
23223;BME280;11780;13.904;100.620;2023-05-25T02:11:17;101045.59;;;33.17;57.22
23223;BME280;11780;13.904;100.620;2023-05-25T02:13:47;101042.03;;;33.17;57.39
23223;BME280;11780;13.904;100.620;2023-05-25T02:16:18;101050.47;;;33.20;57.19
23223;BME280;11780;13.904;100.620;2023-05-25T02:18:50;101045.28;;;33.19;57.36
23223;BME280;11780;13.904;100.620;2023-05-25T02:21:21;101051.31;;;33.21;57.46
23223;BME280;11780;13.904;100.620;2023-05-25T02:23:52;101054.56;;;33.23;57.43
23223;BME280;11780;13.904;100.620;2023-05-25T02:26:24;101062.88;;;33.23;57.87
23223;BME280;11780;13.904;100.620;2023-05-25T02:28:55;101056.84;;;33.21;57.46
23223;BME280;11780;13.904;100.620;2023-05-25T02:31:25;101055.72;;;33.22;57.59
23223;BME280;11780;13.904;100.620;2023-05-25T02:33:57;101058.47;;;33.22;56.93
23223;BME280;11780;13.904;100.620;2023-05-25T02:36:27;101063.34;;;33.25;56.99
23223;BME280;11780;13.904;100.620;2023-05-25T02:38:57;101061.75;;;33.24;57.33
23223;BME280;11780;13.904;100.620;2023-05-25T02:41:28;101060.78;;;33.20;56.87
23223;BME280;11780;13.904;100.620;2023-05-25T02:43:58;101064.81;;;33.22;57.15
23223;BME280;11780;13.904;100.620;2023-05-25T02:46:30;101060.78;;;33.20;56.84
23223;BME280;11780;13.904;100.620;2023-05-25T02:49:02;101064.03;;;33.22;56.44
23223;BME280;11780;13.904;100.620;2023-05-25T02:51:34;101072.84;;;33.24;57.03
23223;BME280;11780;13.904;100.620;2023-05-25T02:54:06;101066.09;;;33.25;57.26
23223;BME280;11780;13.904;100.620;2023-05-25T02:56:36;101067.75;;;33.26;57.26
23223;BME280;11780;13.904;100.620;2023-05-25T02:59:06;101065.78;;;33.27;56.87
23223;BME280;11780;13.904;100.620;2023-05-25T03:01:38;101063.81;;;33.27;57.04
23223;BME280;11780;13.904;100.620;2023-05-25T03:04:09;101055.03;;;33.25;56.61
23223;BME280;11780;13.904;100.620;2023-05-25T03:06:39;101061.88;;;33.28;56.73
23223;BME280;11780;13.904;100.620;2023-05-25T03:09:13;101063.03;;;33.27;56.51
23223;BME280;11780;13.904;100.620;2023-05-25T03:11:47;101043.75;;;33.30;56.54
23223;BME280;11780;13.904;100.620;2023-05-25T03:14:19;101042.47;;;33.28;56.78
23223;BME280;11780;13.904;100.620;2023-05-25T03:16:56;101037.06;;;33.31;56.76
23223;BME280;11780;13.904;100.620;2023-05-25T03:19:27;101037.06;;;33.31;56.42
23223;BME280;11780;13.904;100.620;2023-05-25T03:21:58;101036.28;;;33.31;56.74
23223;BME280;11780;13.904;100.620;2023-05-25T03:24:31;101042.13;;;33.29;56.26
23223;BME280;11780;13.904;100.620;2023-05-25T03:27:03;101037.56;;;33.33;56.42
23223;BME280;11780;13.904;100.620;2023-05-25T03:29:35;101034.28;;;33.31;56.62
23223;BME280;11780;13.904;100.620;2023-05-25T03:32:05;101029.41;;;33.28;56.90
23223;BME280;11780;13.904;100.620;2023-05-25T03:34:37;101024.03;;;33.32;56.64
23223;BME280;11780;13.904;100.620;2023-05-25T03:37:10;101027.94;;;33.31;56.64
23223;BME280;11780;13.904;100.620;2023-05-25T03:39:41;101034.63;;;33.38;56.18
23223;BME280;11780;13.904;100.620;2023-05-25T03:42:11;101025.97;;;33.40;56.10
23223;BME280;11780;13.904;100.620;2023-05-25T03:44:43;101029.53;;;33.40;56.07
23223;BME280;11780;13.904;100.620;2023-05-25T03:47:13;101034.28;;;33.40;56.01
23223;BME280;11780;13.904;100.620;2023-05-25T03:49:44;101026.63;;;33.37;55.96
23223;BME280;11780;13.904;100.620;2023-05-25T03:52:14;101022.41;;;33.39;55.96
23223;BME280;11780;13.904;100.620;2023-05-25T03:54:45;101026.63;;;33.37;55.87
23223;BME280;11780;13.904;100.620;2023-05-25T03:57:15;101024.47;;;33.43;55.86
23223;BME280;11780;13.904;100.620;2023-05-25T03:59:46;101021.69;;;33.43;55.72
23223;BME280;11780;13.904;100.620;2023-05-25T04:02:16;101021.38;;;33.44;55.91
23223;BME280;11780;13.904;100.620;2023-05-25T04:04:46;101021.38;;;33.44;55.67
23223;BME280;11780;13.904;100.620;2023-05-25T04:07:21;101020.19;;;33.54;55.34
23223;BME280;11780;13.904;100.620;2023-05-25T04:09:52;101022.78;;;33.50;55.57
23223;BME280;11780;13.904;100.620;2023-05-25T04:12:22;101017.59;;;33.49;55.65
23223;BME280;11780;13.904;100.620;2023-05-25T04:14:53;101016.31;;;33.46;55.77
23223;BME280;11780;13.904;100.620;2023-05-25T04:17:26;101016.44;;;33.50;55.57
23223;BME280;11780;13.904;100.620;2023-05-25T04:19:57;101013.53;;;33.46;55.67
23223;BME280;11780;13.904;100.620;2023-05-25T04:22:28;101019.88;;;33.47;55.19
23223;BME280;11780;13.904;100.620;2023-05-25T04:25:00;101008.31;;;33.45;55.38
23223;BME280;11780;13.904;100.620;2023-05-25T04:27:31;101012.72;;;33.46;55.54
23223;BME280;11780;13.904;100.620;2023-05-25T04:30:06;101005.06;;;33.43;55.65
23223;BME280;11780;13.904;100.620;2023-05-25T04:32:53;101000.81;;;33.45;55.47
23223;BME280;11780;13.904;100.620;2023-05-25T04:35:32;100993.78;;;33.48;55.45
23223;BME280;11780;13.904;100.620;2023-05-25T04:38:03;100994.13;;;33.46;55.37
23223;BME280;11780;13.904;100.620;2023-05-25T04:40:33;100972.41;;;33.48;55.39
23223;BME280;11780;13.904;100.620;2023-05-25T04:43:04;100984.31;;;33.49;55.37
23223;BME280;11780;13.904;100.620;2023-05-25T04:45:34;100962.13;;;33.49;55.49
23223;BME280;11780;13.904;100.620;2023-05-25T04:48:06;100955.09;;;33.51;55.36
23223;BME280;11780;13.904;100.620;2023-05-25T04:50:37;100947.59;;;33.52;55.17
23223;BME280;11780;13.904;100.620;2023-05-25T04:53:09;100944.94;;;33.55;55.28
23223;BME280;11780;13.904;100.620;2023-05-25T04:55:39;100933.06;;;33.55;55.39
23223;BME280;11780;13.904;100.620;2023-05-25T04:58:10;100937.25;;;33.61;55.25
23223;BME280;11780;13.904;100.620;2023-05-25T05:00:48;100933.66;;;33.61;55.07
23223;BME280;11780;13.904;100.620;2023-05-25T05:03:19;100928.13;;;33.61;55.00
23223;BME280;11780;13.904;100.620;2023-05-25T05:05:50;100915.25;;;33.56;55.29
23223;BME280;11780;13.904;100.620;2023-05-25T05:08:27;100920.00;;;33.55;55.44
23223;BME280;11780;13.904;100.620;2023-05-25T05:10:57;100914.56;;;33.59;55.20
23223;BME280;11780;13.904;100.620;2023-05-25T05:13:28;100911.13;;;33.62;55.33
23223;BME280;11780;13.904;100.620;2023-05-25T05:15:59;100912.75;;;33.63;55.09
23223;BME280;11780;13.904;100.620;2023-05-25T05:18:30;100896.91;;;33.64;55.19
23223;BME280;11780;13.904;100.620;2023-05-25T05:21:01;100900.50;;;33.64;55.01
23223;BME280;11780;13.904;100.620;2023-05-25T05:23:33;100900.44;;;33.73;54.79
23223;BME280;11780;13.904;100.620;2023-05-25T05:26:03;100888.38;;;33.69;54.92
23223;BME280;11780;13.904;100.620;2023-05-25T05:28:36;100896.16;;;33.76;54.98
23223;BME280;11780;13.904;100.620;2023-05-25T05:31:07;100885.13;;;33.67;54.85
23223;BME280;11780;13.904;100.620;2023-05-25T05:33:38;100883.03;;;33.64;55.00
23223;BME280;11780;13.904;100.620;2023-05-25T05:36:09;100880.91;;;33.69;55.08
23223;BME280;11780;13.904;100.620;2023-05-25T05:38:39;100867.16;;;33.73;54.81
23223;BME280;11780;13.904;100.620;2023-05-25T05:41:12;100863.09;;;33.70;55.17
23223;BME280;11780;13.904;100.620;2023-05-25T05:43:47;100858.22;;;33.67;55.04
23223;BME280;11780;13.904;100.620;2023-05-25T05:46:17;100853.16;;;33.69;54.97
23223;BME280;11780;13.904;100.620;2023-05-25T05:48:50;100857.56;;;33.70;55.15
23223;BME280;11780;13.904;100.620;2023-05-25T05:51:20;100836.16;;;33.71;54.98
23223;BME280;11780;13.904;100.620;2023-05-25T05:53:50;100833.84;;;33.73;54.87
23223;BME280;11780;13.904;100.620;2023-05-25T05:56:21;100832.91;;;33.69;54.93
23223;BME280;11780;13.904;100.620;2023-05-25T05:58:51;100833.03;;;33.73;54.86
23223;BME280;11780;13.904;100.620;2023-05-25T06:01:24;100826.81;;;33.76;54.84
23223;BME280;11780;13.904;100.620;2023-05-25T06:03:54;100825.53;;;33.73;54.71
23223;BME280;11780;13.904;100.620;2023-05-25T06:06:25;100815.59;;;33.72;55.04
23223;BME280;11780;13.904;100.620;2023-05-25T06:08:56;100815.72;;;33.76;54.97
23223;BME280;11780;13.904;100.620;2023-05-25T06:11:27;100806.72;;;33.79;54.80
23223;BME280;11780;13.904;100.620;2023-05-25T06:13:58;100798.84;;;33.81;54.70
23223;BME280;11780;13.904;100.620;2023-05-25T06:16:29;100798.19;;;33.84;54.92
23223;BME280;11780;13.904;100.620;2023-05-25T06:18:59;100791.00;;;33.83;54.79
23223;BME280;11780;13.904;100.620;2023-05-25T06:21:30;100780.22;;;33.81;54.84
23223;BME280;11780;13.904;100.620;2023-05-25T06:24:01;100779.53;;;33.84;54.80
23223;BME280;11780;13.904;100.620;2023-05-25T06:26:31;100782.94;;;33.90;54.73
23223;BME280;11780;13.904;100.620;2023-05-25T06:29:02;100776.44;;;33.86;54.92
23223;BME280;11780;13.904;100.620;2023-05-25T06:31:32;100759.81;;;33.86;54.90
23223;BME280;11780;13.904;100.620;2023-05-25T06:34:02;100771.69;;;33.86;54.84
23223;BME280;11780;13.904;100.620;2023-05-25T06:36:33;100759.44;;;33.88;54.89
23223;BME280;11780;13.904;100.620;2023-05-25T06:39:03;100765.00;;;33.88;54.74
23223;BME280;11780;13.904;100.620;2023-05-25T06:41:33;100753.94;;;34.00;54.59
23223;BME280;11780;13.904;100.620;2023-05-25T06:44:04;100748.97;;;33.93;54.77
23223;BME280;11780;13.904;100.620;2023-05-25T06:46:45;100737.06;;;33.93;54.54
23223;BME280;11780;13.904;100.620;2023-05-25T06:49:16;100729.06;;;33.91;54.66
23223;BME280;11780;13.904;100.620;2023-05-25T06:51:46;100729.06;;;33.91;54.71
23223;BME280;11780;13.904;100.620;2023-05-25T06:54:17;100718.78;;;33.92;54.65
23223;BME280;11780;13.904;100.620;2023-05-25T06:56:48;100722.94;;;33.98;54.49
23223;BME280;11780;13.904;100.620;2023-05-25T06:59:18;100722.03;;;33.94;54.43
23223;BME280;11780;13.904;100.620;2023-05-25T07:01:49;100718.06;;;33.95;54.44
23223;BME280;11780;13.904;100.620;2023-05-25T07:04:19;100723.63;;;33.95;54.46
23223;BME280;11780;13.904;100.620;2023-05-25T07:06:51;100715.78;;;33.97;54.51
23223;BME280;11780;13.904;100.620;2023-05-25T07:09:22;100713.34;;;33.95;54.36
23223;BME280;11780;13.904;100.620;2023-05-25T07:11:52;100710.56;;;33.95;54.39
23223;BME280;11780;13.904;100.620;2023-05-25T07:14:22;100703.97;;;34.00;54.50
23223;BME280;11780;13.904;100.620;2023-05-25T07:16:53;100702.84;;;34.01;54.24
23223;BME280;11780;13.904;100.620;2023-05-25T07:19:23;100701.66;;;34.02;54.40
23223;BME280;11780;13.904;100.620;2023-05-25T07:21:53;100700.88;;;34.02;54.40
23223;BME280;11780;13.904;100.620;2023-05-25T07:24:25;100692.88;;;34.00;54.37
23223;BME280;11780;13.904;100.620;2023-05-25T07:26:56;100693.81;;;34.04;54.44
23223;BME280;11780;13.904;100.620;2023-05-25T07:29:26;100693.00;;;34.04;54.52
23223;BME280;11780;13.904;100.620;2023-05-25T07:31:56;100695.75;;;34.04;54.35
23223;BME280;11780;13.904;100.620;2023-05-25T07:34:28;100692.78;;;34.09;54.37
23223;BME280;11780;13.904;100.620;2023-05-25T07:36:58;100679.25;;;34.07;54.41
23223;BME280;11780;13.904;100.620;2023-05-25T07:39:28;100682.81;;;34.08;54.26
23223;BME280;11780;13.904;100.620;2023-05-25T07:41:58;100677.72;;;34.10;54.38
23223;BME280;11780;13.904;100.620;2023-05-25T07:44:28;100676.59;;;34.11;54.26
23223;BME280;11780;13.904;100.620;2023-05-25T07:46:59;100676.94;;;34.09;54.36
23223;BME280;11780;13.904;100.620;2023-05-25T07:49:29;100682.50;;;34.09;54.71
23223;BME280;11780;13.904;100.620;2023-05-25T07:51:59;100671.94;;;34.03;54.52
23223;BME280;11780;13.904;100.620;2023-05-25T07:54:33;100668.94;;;34.08;54.62
23223;BME280;11780;13.904;100.620;2023-05-25T07:57:08;100671.38;;;34.09;54.39
23223;BME280;11780;13.904;100.620;2023-05-25T07:59:38;100661.66;;;34.03;54.51
23223;BME280;11780;13.904;100.620;2023-05-25T08:02:09;100658.06;;;34.03;54.42
23223;BME280;11780;13.904;100.620;2023-05-25T08:04:39;100658.06;;;34.03;54.53
23223;BME280;11780;13.904;100.620;2023-05-25T08:07:10;100655.75;;;34.05;54.70
23223;BME280;11780;13.904;100.620;2023-05-25T08:09:40;100658.06;;;34.03;54.79
23223;BME280;11780;13.904;100.620;2023-05-25T08:12:11;100661.78;;;34.07;54.83
23223;BME280;11780;13.904;100.620;2023-05-25T08:15:01;100648.72;;;34.07;54.50
23223;BME280;11780;13.904;100.620;2023-05-25T08:17:31;100647.09;;;34.06;54.59
23223;BME280;11780;13.904;100.620;2023-05-25T08:20:02;100652.06;;;34.13;54.47
23223;BME280;11780;13.904;100.620;2023-05-25T08:22:35;100637.72;;;34.11;54.52
23223;BME280;11780;13.904;100.620;2023-05-25T08:25:06;100637.72;;;34.11;54.23
23223;BME280;11780;13.904;100.620;2023-05-25T08:27:36;100623.84;;;34.11;54.37
23223;BME280;11780;13.904;100.620;2023-05-25T08:30:07;100623.38;;;34.09;54.59
23223;BME280;11780;13.904;100.620;2023-05-25T08:32:37;100624.53;;;34.08;54.66
23223;BME280;11780;13.904;100.620;2023-05-25T08:35:08;100620.25;;;34.10;54.45
23223;BME280;11780;13.904;100.620;2023-05-25T08:37:39;100618.88;;;34.04;54.41
23223;BME280;11780;13.904;100.620;2023-05-25T08:40:14;100616.09;;;34.04;54.42
23223;BME280;11780;13.904;100.620;2023-05-25T08:42:45;100611.50;;;34.08;54.23
23223;BME280;11780;13.904;100.620;2023-05-25T08:45:15;100601.19;;;34.09;54.16
23223;BME280;11780;13.904;100.620;2023-05-25T08:48:03;100593.53;;;34.06;54.07
23223;BME280;11780;13.904;100.620;2023-05-25T08:51:00;100594.84;;;34.08;54.07
23223;BME280;11780;13.904;100.620;2023-05-25T08:53:36;100592.84;;;34.09;54.19
23223;BME280;11780;13.904;100.620;2023-05-25T08:56:18;100582.44;;;34.06;54.00
23223;BME280;11780;13.904;100.620;2023-05-25T08:59:29;100581.75;;;34.09;53.91
23223;BME280;11780;13.904;100.620;2023-05-25T09:04:43;100579.34;;;34.07;53.93
23223;BME280;11780;13.904;100.620;2023-05-25T09:07:14;100576.19;;;34.09;54.06
23223;BME280;11780;13.904;100.620;2023-05-25T09:09:46;100573.78;;;34.07;53.83
23223;BME280;11780;13.904;100.620;2023-05-25T09:12:17;100565.34;;;34.04;53.84
23223;BME280;11780;13.904;100.620;2023-05-25T09:14:48;100551.13;;;34.05;53.81
23223;BME280;11780;13.904;100.620;2023-05-25T09:17:18;100545.91;;;34.04;53.92
23223;BME280;11780;13.904;100.620;2023-05-25T09:19:50;100542.69;;;34.02;53.84
23223;BME280;11780;13.904;100.620;2023-05-25T09:22:20;100545.91;;;34.04;53.58
23223;BME280;11780;13.904;100.620;2023-05-25T09:24:52;100538.03;;;34.06;53.63
23223;BME280;11780;13.904;100.620;2023-05-25T09:27:24;100533.09;;;33.99;53.86
23223;BME280;11780;13.904;100.620;2023-05-25T09:29:55;100525.69;;;34.03;53.65
23223;BME280;11780;13.904;100.620;2023-05-25T09:32:28;100523.72;;;34.04;53.76
23223;BME280;11780;13.904;100.620;2023-05-25T09:35:07;100509.28;;;33.98;54.10
23223;BME280;11780;13.904;100.620;2023-05-25T09:37:39;100517.72;;;34.02;53.96
23223;BME280;11780;13.904;100.620;2023-05-25T12:58:00;100712.78;;;33.44;59.51
23223;BME280;11780;13.904;100.620;2023-05-25T13:00:35;100721.75;;;33.40;59.76
23223;BME280;11780;13.904;100.620;2023-05-25T13:03:06;100729.66;;;33.38;59.69
23223;BME280;11780;13.904;100.620;2023-05-25T13:05:37;100728.84;;;33.50;59.64
23223;BME280;11780;13.904;100.620;2023-05-25T13:08:07;100723.66;;;33.49;59.88
23223;BME280;11780;13.904;100.620;2023-05-25T13:10:38;100736.38;;;33.50;59.88
23223;BME280;11780;13.904;100.620;2023-05-25T13:13:10;100744.47;;;33.55;59.68
23223;BME280;11780;13.904;100.620;2023-05-25T13:15:41;100749.91;;;33.64;59.99
23223;BME280;11780;13.904;100.620;2023-05-25T13:18:12;100750.53;;;33.69;60.07
23223;BME280;11780;13.904;100.620;2023-05-25T13:20:42;100759.16;;;33.68;59.71
23223;BME280;11780;13.904;100.620;2023-05-25T13:23:16;100761.16;;;33.67;60.00
23223;BME280;11780;13.904;100.620;2023-05-25T13:25:47;100760.09;;;33.72;59.83
23223;BME280;11780;13.904;100.620;2023-05-25T13:28:18;100761.84;;;33.77;60.24
23223;BME280;11780;13.904;100.620;2023-05-25T13:30:49;100775.56;;;33.61;60.36
23223;BME280;11780;13.904;100.620;2023-05-25T13:33:20;100783.41;;;33.59;60.33
23223;BME280;11780;13.904;100.620;2023-05-25T13:35:50;100791.75;;;33.59;60.60
23223;BME280;11780;13.904;100.620;2023-05-25T13:38:27;100799.47;;;33.53;60.92
23223;BME280;11780;13.904;100.620;2023-05-25T13:40:58;100810.75;;;33.48;60.91
23223;BME280;11780;13.904;100.620;2023-05-25T13:43:29;100808.19;;;33.43;61.09
23223;BME280;11780;13.904;100.620;2023-05-25T13:45:59;100810.16;;;33.42;60.90
23223;BME280;11780;13.904;100.620;2023-05-25T13:48:30;100824.69;;;33.39;61.14
23223;BME280;11780;13.904;100.620;2023-05-25T13:51:00;100828.34;;;33.31;61.17
23223;BME280;11780;13.904;100.620;2023-05-25T13:53:32;100833.38;;;33.37;61.09
23223;BME280;11780;13.904;100.620;2023-05-25T13:56:02;100835.91;;;33.43;61.07
23223;BME280;11780;13.904;100.620;2023-05-25T13:58:33;100844.94;;;33.39;60.83
23223;BME280;11780;13.904;100.620;2023-05-25T14:01:03;100851.16;;;33.36;61.00
23223;BME280;11780;13.904;100.620;2023-05-25T14:03:36;100862.19;;;33.45;60.94
23223;BME280;11780;13.904;100.620;2023-05-25T14:06:07;100854.06;;;33.40;60.61
23223;BME280;11780;13.904;100.620;2023-05-25T14:08:38;100858.94;;;33.43;60.61
23223;BME280;11780;13.904;100.620;2023-05-25T14:11:09;100866.69;;;33.50;60.71
23223;BME280;11780;13.904;100.620;2023-05-25T14:13:39;100867.91;;;33.40;60.49
23223;BME280;11780;13.904;100.620;2023-05-25T14:16:09;100865.03;;;33.36;60.48
23223;BME280;11780;13.904;100.620;2023-05-25T14:18:40;100873.81;;;33.38;60.62
23223;BME280;11780;13.904;100.620;2023-05-25T14:21:10;100873.50;;;33.31;60.65
23223;BME280;11780;13.904;100.620;2023-05-25T14:23:41;100885.22;;;33.37;60.67
23223;BME280;11780;13.904;100.620;2023-05-25T14:26:12;100893.94;;;33.48;60.40
23223;BME280;11780;13.904;100.620;2023-05-25T14:28:42;100897.63;;;33.61;60.24
23223;BME280;11780;13.904;100.620;2023-05-25T14:31:13;100889.22;;;33.69;60.11
23223;BME280;11780;13.904;100.620;2023-05-25T14:33:44;100906.06;;;33.64;60.26
23223;BME280;11780;13.904;100.620;2023-05-25T14:36:15;100906.94;;;33.56;60.84
23223;BME280;11780;13.904;100.620;2023-05-25T14:38:45;100915.09;;;33.74;60.54
23223;BME280;11780;13.904;100.620;2023-05-25T14:41:15;100917.81;;;33.82;60.31
23223;BME280;11780;13.904;100.620;2023-05-25T14:43:45;100926.13;;;33.82;60.41
23223;BME280;11780;13.904;100.620;2023-05-25T14:46:16;100925.94;;;33.88;60.41
23223;BME280;11780;13.904;100.620;2023-05-25T14:48:47;100927.44;;;33.85;60.42
23223;BME280;11780;13.904;100.620;2023-05-25T14:51:17;100924.81;;;33.89;60.42
23223;BME280;11780;13.904;100.620;2023-05-25T14:53:47;100924.97;;;33.83;60.44
23223;BME280;11780;13.904;100.620;2023-05-25T14:56:20;100916.47;;;33.89;60.39
23223;BME280;11780;13.904;100.620;2023-05-25T14:58:50;100930.53;;;33.83;60.58
23223;BME280;11780;13.904;100.620;2023-05-25T15:01:21;100920.88;;;33.90;60.53
23223;BME280;11780;13.904;100.620;2023-05-25T15:03:52;100931.47;;;33.88;60.31
23223;BME280;11780;13.904;100.620;2023-05-25T15:06:22;100930.59;;;33.75;60.83
23223;BME280;11780;13.904;100.620;2023-05-25T15:08:52;100939.16;;;33.69;60.98
23223;BME280;11780;13.904;100.620;2023-05-25T15:11:24;100941.75;;;33.66;60.92
23223;BME280;11780;13.904;100.620;2023-05-25T15:13:55;100943.25;;;33.63;60.90
23223;BME280;11780;13.904;100.620;2023-05-25T15:16:29;100948.81;;;33.63;61.02
23223;BME280;11780;13.904;100.620;2023-05-25T15:18:59;100941.44;;;33.67;61.35
23223;BME280;11780;13.904;100.620;2023-05-25T15:21:30;100942.13;;;33.64;61.91
23223;BME280;11780;13.904;100.620;2023-05-25T15:24:00;100941.75;;;33.66;61.92
23223;BME280;11780;13.904;100.620;2023-05-25T15:26:31;100945.00;;;33.68;61.79
23223;BME280;11780;13.904;100.620;2023-05-25T15:29:03;100943.75;;;33.65;62.02
23223;BME280;11780;13.904;100.620;2023-05-25T15:31:33;100947.66;;;33.64;62.05
23223;BME280;11780;13.904;100.620;2023-05-25T15:34:03;100951.22;;;33.65;62.30
23223;BME280;11780;13.904;100.620;2023-05-25T15:36:34;100952.53;;;33.67;62.23
23223;BME280;11780;13.904;100.620;2023-05-25T15:39:05;100950.44;;;33.64;62.12
23223;BME280;11780;13.904;100.620;2023-05-25T15:41:37;100963.16;;;33.65;62.01
23223;BME280;11780;13.904;100.620;2023-05-25T15:44:07;100961.66;;;33.68;61.94
23223;BME280;11780;13.904;100.620;2023-05-25T15:46:41;100968.03;;;33.68;62.10
23223;BME280;11780;13.904;100.620;2023-05-25T15:49:11;100965.94;;;33.65;61.95
23223;BME280;11780;13.904;100.620;2023-05-25T15:51:42;100960.69;;;33.64;62.15
23223;BME280;11780;13.904;100.620;2023-05-25T15:54:13;100966.41;;;33.67;61.94
23223;BME280;11780;13.904;100.620;2023-05-25T15:56:43;100970.66;;;33.65;62.03
23223;BME280;11780;13.904;100.620;2023-05-25T15:59:14;100963.16;;;33.65;61.98
23223;BME280;11780;13.904;100.620;2023-05-25T16:01:44;100953.22;;;33.64;62.25
23223;BME280;11780;13.904;100.620;2023-05-25T16:04:15;100947.00;;;33.67;62.37
23223;BME280;11780;13.904;100.620;2023-05-25T16:06:45;100953.34;;;33.68;62.33
23223;BME280;11780;13.904;100.620;2023-05-25T16:09:17;100953.34;;;33.68;62.39
23223;BME280;11780;13.904;100.620;2023-05-25T16:11:47;100957.25;;;33.67;62.30
23223;BME280;11780;13.904;100.620;2023-05-25T16:14:17;100955.78;;;33.69;62.24
23223;BME280;11780;13.904;100.620;2023-05-25T16:16:48;100951.38;;;33.68;62.00